Time;durP1;ratioP1;P1;durP2;ratioP2;P2;SDS_P1;SDS_P2;PMS_P1;PMS_P2;Temp;Humidity;BMP_temperature;BMP_pressure;BME280_temperature;BME280_humidity;BME280_pressure;Samples;Min_cycle;Max_cycle;Signal;HPM_P1;HPM_P2
2023/03/10 00:01:27;;;;;;;0.08;0.08;;;1.40;99.90;;;;;;5137065;27;20050;-81
2023/03/10 00:03:54;;;;;;;5.63;1.52;;;1.40;99.90;;;;;;5120092;27;20050;-82
2023/03/10 00:06:23;;;;;;;0.10;0.10;;;1.40;99.90;;;;;;5137213;27;20043;-83
2023/03/10 00:08:48;;;;;;;1.25;1.00;;;1.40;99.90;;;;;;5136964;27;20038;-83
2023/03/10 00:11:15;;;;;;;0.15;0.15;;;1.40;99.90;;;;;;5086372;27;20038;-83
2023/03/10 00:13:40;;;;;;;1.15;0.60;;;1.40;99.90;;;;;;5137267;27;20547;-83
2023/03/10 00:16:07;;;;;;;0.30;0.30;;;1.40;99.90;;;;;;5119948;27;20107;-83
2023/03/10 00:18:33;;;;;;;1.10;0.63;;;1.40;99.90;;;;;;5136944;27;20095;-83
2023/03/10 00:20:59;;;;;;;1.08;1.08;;;1.50;99.90;;;;;;5102208;27;20046;-82
2023/03/10 00:23:25;;;;;;;0.20;0.20;;;1.40;99.90;;;;;;5102947;27;20042;-81
2023/03/10 00:25:56;;;;;;;0.20;0.20;;;1.50;99.90;;;;;;5136715;27;20041;-81
2023/03/10 00:28:22;;;;;;;0.17;0.10;;;1.40;99.90;;;;;;5136897;27;20067;-81
2023/03/10 00:31:03;;;;;;;0.00;0.00;;;1.40;99.90;;;;;;5136890;27;20442;-82
2023/03/10 00:33:32;;;;;;;0.10;0.10;;;1.40;99.90;;;;;;5137186;27;20054;-81
2023/03/10 00:36:13;;;;;;;0.55;0.55;;;1.40;99.90;;;;;;5119674;27;20121;-82
2023/03/10 00:38:40;;;;;;;0.22;0.22;;;1.40;99.90;;;;;;5137294;27;20046;-82
2023/03/10 00:41:09;;;;;;;0.10;0.10;;;1.50;99.90;;;;;;5119792;27;20130;-83
2023/03/10 00:43:35;;;;;;;0.00;0.00;;;1.50;99.90;;;;;;5136766;27;20482;-83
2023/03/10 00:46:01;;;;;;;0.22;0.22;;;1.50;99.90;;;;;;5120324;27;20057;-83
2023/03/10 00:48:27;;;;;;;0.10;0.10;;;2.10;99.90;;;;;;5119623;27;20390;-83
2023/03/10 00:50:54;;;;;;;0.32;0.32;;;1.50;99.90;;;;;;5121968;27;20039;-83
2023/03/10 00:53:19;;;;;;;0.15;0.15;;;1.50;99.90;;;;;;5106628;27;20054;-83
2023/03/10 00:56:07;;;;;;;0.00;0.00;;;1.40;99.90;;;;;;5089182;27;20061;-84
2023/03/10 00:58:33;;;;;;;0.30;0.10;;;1.40;99.90;;;;;;5124372;27;20050;-84
2023/03/10 01:01:00;;;;;;;0.10;0.10;;;1.40;99.90;;;;;;5140491;27;20371;-83
2023/03/10 01:03:27;;;;;;;0.17;0.17;;;1.40;99.90;;;;;;5140618;27;20051;-83
2023/03/10 01:05:54;;;;;;;0.00;0.00;;;1.50;99.90;;;;;;5140366;27;20084;-83
2023/03/10 01:08:20;;;;;;;0.10;0.10;;;1.50;99.90;;;;;;5140014;27;20050;-84
2023/03/10 01:10:45;;;;;;;0.10;0.10;;;1.40;99.90;;;;;;5122725;27;20394;-84
2023/03/10 01:13:13;;;;;;;0.10;0.10;;;1.40;99.90;;;;;;5123226;27;20089;-84
2023/03/10 01:15:40;;;;;;;0.30;0.10;;;1.40;99.90;;;;;;5139891;27;20443;-84
2023/03/10 01:18:06;;;;;;;1.85;0.57;;;1.40;99.90;;;;;;5123058;27;20131;-85
2023/03/10 01:20:32;;;;;;;0.00;0.00;;;1.40;99.90;;;;;;5122414;27;20039;-84
2023/03/10 01:22:59;;;;;;;0.00;0.00;;;1.50;99.90;;;;;;5105958;27;20042;-84
2023/03/10 01:25:25;;;;;;;5.07;0.50;;;1.40;99.90;;;;;;5123395;27;20042;-85
2023/03/10 01:27:51;;;;;;;0.75;0.20;;;1.40;99.90;;;;;;5139901;27;20043;-85
2023/03/10 01:30:17;;;;;;;0.35;0.35;;;1.50;99.90;;;;;;5122854;27;20047;-84
2023/03/10 01:32:43;;;;;;;0.08;0.08;;;1.40;99.90;;;;;;5122413;27;20558;-84
2023/03/10 01:35:09;;;;;;;0.20;0.20;;;1.40;99.90;;;;;;5122695;27;20492;-84
2023/03/10 01:37:34;;;;;;;0.00;0.00;;;1.40;99.90;;;;;;5122760;27;20047;-85
2023/03/10 01:40:03;;;;;;;0.00;0.00;;;1.50;99.90;;;;;;5122743;27;20387;-85
2023/03/10 01:42:29;;;;;;;0.00;0.00;;;1.40;99.90;;;;;;5089367;27;20085;-85
2023/03/10 01:45:29;;;;;;;0.13;0.00;;;1.60;99.90;;;;;;5139757;27;20047;-86
2023/03/10 01:47:55;;;;;;;0.05;0.05;;;1.40;99.90;;;;;;5139468;27;20042;-85
2023/03/10 01:50:22;;;;;;;1.17;0.98;;;1.40;99.90;;;;;;5121926;27;20046;-85
2023/03/10 01:52:55;;;;;;;0.00;0.00;;;1.40;99.90;;;;;;5139625;27;20134;-84
2023/03/10 01:55:28;;;;;;;0.95;0.95;;;1.40;99.90;;;;;;5139274;27;20058;-85
2023/03/10 01:57:55;;;;;;;0.00;0.00;;;1.50;99.90;;;;;;5140142;27;20051;-85
2023/03/10 02:00:23;;;;;;;0.30;0.30;;;1.40;99.90;;;;;;5122070;27;20130;-85
2023/03/10 02:02:57;;;;;;;0.00;0.00;;;1.40;99.90;;;;;;5139588;27;20122;-85
2023/03/10 02:05:23;;;;;;;0.43;0.43;;;1.40;99.90;;;;;;5122467;27;20043;-84
2023/03/10 02:07:50;;;;;;;0.20;0.20;;;1.40;99.90;;;;;;5121982;27;20034;-85
2023/03/10 02:10:16;;;;;;;0.13;0.13;;;1.40;99.90;;;;;;5139154;27;20122;-86
2023/03/10 02:12:44;;;;;;;0.00;0.00;;;1.40;99.90;;;;;;5121924;27;20187;-84
2023/03/10 02:15:10;;;;;;;1.10;0.30;;;1.40;99.90;;;;;;5105797;27;20043;-84
2023/03/10 02:17:37;;;;;;;0.20;0.20;;;1.40;99.90;;;;;;5121717;27;20042;-84
2023/03/10 02:20:28;;;;;;;0.30;0.10;;;1.40;99.90;;;;;;5104313;27;20393;-82
2023/03/10 02:22:54;;;;;;;0.52;0.20;;;1.50;99.90;;;;;;5121474;27;20081;-84
2023/03/10 02:25:39;;;;;;;0.00;0.00;;;1.50;99.90;;;;;;5104899;27;20083;-84
2023/03/10 02:28:06;;;;;;;0.00;0.00;;;1.40;99.90;;;;;;5121738;27;20065;-83
2023/03/10 02:30:38;;;;;;;0.00;0.00;;;1.40;99.90;;;;;;5138797;27;20042;-84
2023/03/10 02:33:09;;;;;;;0.05;0.05;;;1.50;99.90;;;;;;5138730;27;20090;-84
2023/03/10 02:35:35;;;;;;;0.00;0.00;;;1.40;99.90;;;;;;5138377;27;20043;-84
2023/03/10 02:38:01;;;;;;;0.00;0.00;;;1.40;99.90;;;;;;5121402;27;20050;-83
2023/03/10 02:40:35;;;;;;;0.52;0.45;;;1.40;99.90;;;;;;5104518;27;20482;-81
2023/03/10 02:43:28;;;;;;;0.00;0.00;;;1.40;99.90;;;;;;5138954;27;20046;-84
2023/03/10 02:45:58;;;;;;;0.10;0.10;;;1.40;99.90;;;;;;5134330;27;20133;-84
2023/03/10 02:48:36;;;;;;;0.10;0.10;;;1.40;99.90;;;;;;5138316;27;20501;-84
2023/03/10 02:51:05;;;;;;;0.10;0.10;;;1.40;99.90;;;;;;5138006;27;20359;-84
2023/03/10 02:53:31;;;;;;;0.03;0.03;;;1.40;99.90;;;;;;5138574;27;20047;-83
2023/03/10 02:55:58;;;;;;;0.00;0.00;;;1.40;99.90;;;;;;5137750;27;20080;-84
2023/03/10 02:58:26;;;;;;;0.30;0.20;;;1.40;99.90;;;;;;5121470;27;20050;-84
2023/03/10 03:00:51;;;;;;;0.05;0.03;;;1.30;99.90;;;;;;5138131;27;20372;-83
2023/03/10 03:03:20;;;;;;;0.00;0.00;;;1.40;99.90;;;;;;5121331;27;20141;-83
2023/03/10 03:05:47;;;;;;;0.20;0.20;;;1.30;99.90;;;;;;5137978;27;20047;-83
2023/03/10 03:08:13;;;;;;;0.00;0.00;;;1.40;99.90;;;;;;5121055;27;20051;-83
2023/03/10 03:10:39;;;;;;;0.32;0.32;;;1.40;99.90;;;;;;5120910;27;20084;-84
2023/03/10 03:13:05;;;;;;;0.63;0.63;;;1.30;99.90;;;;;;5137291;27;20046;-83
2023/03/10 03:15:31;;;;;;;0.00;0.00;;;1.30;99.90;;;;;;5137905;27;20154;-84
2023/03/10 03:17:57;;;;;;;0.17;0.17;;;1.40;99.90;;;;;;5138428;27;20372;-83
2023/03/10 03:20:27;;;;;;;0.00;0.00;;;1.40;99.90;;;;;;5120245;27;20049;-83
2023/03/10 03:22:53;;;;;;;0.70;0.68;;;1.30;99.90;;;;;;5137937;27;20050;-83
2023/03/10 03:25:21;;;;;;;2.90;0.47;;;1.40;99.90;;;;;;5137766;27;20407;-83
2023/03/10 03:27:48;;;;;;;0.00;0.00;;;1.40;99.90;;;;;;5137614;27;20047;-83
2023/03/10 03:30:19;;;;;;;0.17;0.17;;;1.30;99.90;;;;;;5137275;27;20051;-84
2023/03/10 03:32:45;;;;;;;0.00;0.00;;;1.30;99.90;;;;;;5137304;27;20043;-85
2023/03/10 03:35:14;;;;;;;0.00;0.00;;;1.40;99.90;;;;;;5120345;27;20138;-85
2023/03/10 03:37:41;;;;;;;0.08;0.08;;;1.30;99.90;;;;;;5119947;27;20133;-84
2023/03/10 03:40:11;;;;;;;0.00;0.00;;;1.30;99.90;;;;;;5120462;27;20498;-85
2023/03/10 03:42:46;;;;;;;0.00;0.00;;;1.30;99.90;;;;;;5138321;27;20050;-85
2023/03/10 03:45:14;;;;;;;0.00;0.00;;;1.30;99.90;;;;;;5120344;27;20090;-85
2023/03/10 03:47:40;;;;;;;0.00;0.00;;;1.30;99.90;;;;;;5137467;27;20042;-85
2023/03/10 03:50:08;;;;;;;0.00;0.00;;;1.30;99.90;;;;;;5102874;27;20363;-84
2023/03/10 03:52:33;;;;;;;0.00;0.00;;;1.30;99.90;;;;;;5119905;27;20443;-84
2023/03/10 03:54:59;;;;;;;2.72;0.65;;;1.30;99.90;;;;;;5119866;27;20053;-83
2023/03/10 03:57:25;;;;;;;0.35;0.35;;;1.40;99.90;;;;;;5120083;27;20103;-83
2023/03/10 03:59:52;;;;;;;0.17;0.13;;;1.30;99.90;;;;;;5120195;27;20479;-83
2023/03/10 04:02:17;;;;;;;0.00;0.00;;;1.30;99.90;;;;;;5120108;27;20129;-83
2023/03/10 04:04:43;;;;;;;0.00;0.00;;;1.30;99.90;;;;;;5120054;27;20133;-81
2023/03/10 04:07:09;;;;;;;0.95;0.38;;;1.30;99.90;;;;;;5137169;27;20097;-81
2023/03/10 04:09:38;;;;;;;0.00;0.00;;;1.40;99.90;;;;;;5119805;27;20130;-82
2023/03/10 04:12:04;;;;;;;0.17;0.17;;;1.30;99.90;;;;;;5155352;27;20045;-82
2023/03/10 04:14:29;;;;;;;0.20;0.20;;;1.30;99.90;;;;;;5137143;27;20043;-81
2023/03/10 04:16:55;;;;;;;0.45;0.45;;;1.30;99.90;;;;;;5119649;27;20047;-81
2023/03/10 04:19:21;;;;;;;0.28;0.28;;;1.30;99.90;;;;;;5155380;27;20058;-78
2023/03/10 04:21:46;;;;;;;0.13;0.13;;;1.40;99.90;;;;;;5154675;27;20049;-78
2023/03/10 04:24:12;;;;;;;0.52;0.52;;;1.30;99.90;;;;;;5157712;27;20050;-78
2023/03/10 04:26:38;;;;;;;0.00;0.00;;;1.30;99.90;;;;;;5159480;27;20101;-77
2023/03/10 04:29:03;;;;;;;0.17;0.17;;;1.30;99.90;;;;;;5141486;27;20070;-80
2023/03/10 04:31:29;;;;;;;0.20;0.20;;;1.30;99.90;;;;;;5141156;27;20031;-79
2023/03/10 04:33:55;;;;;;;0.10;0.10;;;1.30;99.90;;;;;;5123819;27;20390;-80
2023/03/10 04:36:20;;;;;;;2.25;0.55;;;1.40;99.90;;;;;;5140865;27;20039;-81
2023/03/10 04:38:46;;;;;;;0.43;0.40;;;1.30;99.90;;;;;;5107048;27;20043;-81
2023/03/10 04:41:12;;;;;;;0.40;0.40;;;1.30;99.90;;;;;;5106935;27;20367;-82
2023/03/10 04:43:38;;;;;;;5.15;0.50;;;1.40;99.90;;;;;;5123700;27;20138;-83
2023/03/10 04:46:04;;;;;;;0.00;0.00;;;1.30;99.90;;;;;;5089720;27;20135;-83
2023/03/10 04:48:32;;;;;;;0.40;0.40;;;1.30;99.90;;;;;;5140768;27;20100;-83
2023/03/10 04:51:00;;;;;;;0.30;0.30;;;1.30;99.90;;;;;;5140320;27;20043;-83
2023/03/10 04:53:26;;;;;;;0.00;0.00;;;1.30;99.90;;;;;;5140805;27;20127;-83
2023/03/10 04:55:52;;;;;;;1.95;0.30;;;1.30;99.90;;;;;;5159106;27;20059;-82
2023/03/10 04:58:21;;;;;;;0.13;0.13;;;1.40;99.90;;;;;;5106441;27;20425;-82
2023/03/10 05:00:48;;;;;;;0.03;0.03;;;1.30;99.90;;;;;;5140526;27;20042;-82
2023/03/10 05:03:14;;;;;;;0.00;0.00;;;1.40;99.90;;;;;;5158697;27;20103;-82
2023/03/10 05:05:40;;;;;;;1.10;0.93;;;1.30;99.90;;;;;;5123694;27;20062;-83
2023/03/10 05:08:06;;;;;;;0.03;0.00;;;1.30;99.90;;;;;;5140402;27;20043;-83
2023/03/10 05:10:32;;;;;;;1.38;0.43;;;1.60;99.90;;;;;;5140368;27;20390;-84
2023/03/10 05:12:58;;;;;;;0.38;0.38;;;1.30;99.90;;;;;;5122601;27;20038;-83
2023/03/10 05:15:24;;;;;;;0.52;0.52;;;1.30;99.90;;;;;;5123181;27;20039;-84
2023/03/10 05:17:49;;;;;;;0.00;0.00;;;1.30;99.90;;;;;;5089396;27;20053;-84
2023/03/10 05:20:15;;;;;;;0.00;0.00;;;1.30;99.90;;;;;;5122205;27;20051;-84
2023/03/10 05:22:42;;;;;;;0.52;0.13;;;1.30;99.90;;;;;;5106157;27;20042;-83
2023/03/10 05:25:09;;;;;;;0.00;0.00;;;1.30;99.90;;;;;;5106018;27;20045;-83
2023/03/10 05:27:37;;;;;;;0.00;0.00;;;1.40;99.90;;;;;;5140149;27;20055;-84
2023/03/10 05:30:09;;;;;;;0.00;0.00;;;1.40;99.90;;;;;;5106015;27;20038;-83
2023/03/10 05:32:36;;;;;;;0.00;0.00;;;1.40;99.90;;;;;;5139356;27;20043;-83
2023/03/10 05:35:02;;;;;;;0.20;0.20;;;1.40;99.90;;;;;;5121966;27;20042;-83
2023/03/10 05:37:28;;;;;;;0.00;0.00;;;1.40;99.90;;;;;;5139807;27;20096;-83
2023/03/10 05:39:54;;;;;;;0.35;0.35;;;1.40;99.90;;;;;;5140059;27;20042;-83
2023/03/10 05:42:20;;;;;;;0.00;0.00;;;1.40;99.90;;;;;;5123010;27;20053;-83
2023/03/10 05:44:46;;;;;;;0.28;0.28;;;1.40;99.90;;;;;;5122572;27;20050;-83
2023/03/10 05:47:13;;;;;;;0.00;0.00;;;1.40;99.90;;;;;;5139646;27;20043;-83
2023/03/10 05:49:39;;;;;;;4.00;0.10;;;1.40;99.90;;;;;;5105359;27;20121;-83
2023/03/10 05:52:06;;;;;;;0.00;0.00;;;1.40;99.90;;;;;;5139356;27;20523;-84
2023/03/10 05:54:32;;;;;;;0.00;0.00;;;1.40;99.90;;;;;;5139878;27;20047;-83
2023/03/10 05:56:57;;;;;;;0.10;0.10;;;1.40;99.90;;;;;;5139292;27;20371;-84
2023/03/10 05:59:25;;;;;;;0.70;0.20;;;1.40;99.90;;;;;;5140187;27;20046;-83
2023/03/10 06:01:50;;;;;;;0.52;0.22;;;1.40;99.90;;;;;;5139301;27;20042;-84
2023/03/10 06:04:16;;;;;;;0.00;0.00;;;1.40;99.90;;;;;;5122251;27;20050;-84
2023/03/10 06:06:42;;;;;;;0.93;0.77;;;1.40;99.90;;;;;;5122208;27;20089;-85
2023/03/10 06:09:08;;;;;;;0.40;0.40;;;1.40;99.90;;;;;;5122018;27;20393;-84
2023/03/10 06:11:33;;;;;;;1.17;0.30;;;1.40;99.90;;;;;;5104795;27;20133;-84
2023/03/10 06:13:59;;;;;;;0.30;0.28;;;1.40;99.90;;;;;;5105080;27;20058;-84
2023/03/10 06:16:25;;;;;;;0.10;0.10;;;1.30;99.90;;;;;;5121891;27;20047;-84
2023/03/10 06:18:55;;;;;;;0.08;0.08;;;1.40;99.90;;;;;;5138717;27;20043;-84
2023/03/10 06:21:21;;;;;;;0.00;0.00;;;1.40;99.90;;;;;;5138668;27;20436;-84
2023/03/10 06:23:47;;;;;;;0.00;0.00;;;1.40;99.90;;;;;;5121806;27;20051;-84
2023/03/10 06:26:15;;;;;;;0.00;0.00;;;1.40;99.90;;;;;;5104878;27;20046;-85
2023/03/10 06:28:42;;;;;;;0.00;0.00;;;1.40;99.90;;;;;;5121669;27;20050;-84
2023/03/10 06:31:16;;;;;;;0.00;0.00;;;1.40;99.90;;;;;;5121890;27;20127;-84
2023/03/10 06:33:42;;;;;;;0.90;0.55;;;1.40;99.90;;;;;;5139177;27;20409;-84
2023/03/10 06:36:10;;;;;;;0.38;0.38;;;1.40;99.90;;;;;;5138846;27;20043;-85
2023/03/10 06:38:36;;;;;;;0.10;0.10;;;1.40;99.90;;;;;;5139272;27;20443;-84
2023/03/10 06:41:02;;;;;;;0.10;0.10;;;1.50;99.90;;;;;;5121533;27;20047;-84
2023/03/10 06:43:29;;;;;;;0.00;0.00;;;1.40;99.90;;;;;;5121247;27;20046;-84
2023/03/10 06:45:55;;;;;;;1.35;0.30;;;1.50;99.90;;;;;;5104556;27;20137;-86
2023/03/10 06:48:20;;;;;;;0.00;0.00;;;1.40;99.90;;;;;;5121058;27;20092;-85
2023/03/10 06:50:47;;;;;;;2.97;0.32;;;1.50;99.90;;;;;;5155945;27;20053;-85
2023/03/10 06:53:14;;;;;;;0.05;0.05;;;1.50;99.90;;;;;;5121191;27;20046;-87
2023/03/10 06:55:40;;;;;;;2.22;0.40;;;1.70;99.90;;;;;;5120796;27;20058;-85
2023/03/10 06:58:06;;;;;;;0.10;0.10;;;1.50;99.90;;;;;;5121096;27;20106;-86
2023/03/10 07:00:32;;;;;;;0.00;0.00;;;1.60;99.90;;;;;;5121082;27;20475;-86
2023/03/10 07:03:04;;;;;;;0.22;0.22;;;1.60;99.90;;;;;;5087364;27;20208;-86
2023/03/10 07:05:29;;;;;;;0.00;0.00;;;1.90;99.90;;;;;;5120851;27;20050;-86
2023/03/10 07:07:55;;;;;;;0.32;0.10;;;1.60;99.90;;;;;;5137962;27;20047;-86
2023/03/10 07:10:21;;;;;;;0.15;0.15;;;1.70;99.90;;;;;;5137840;27;20078;-86
2023/03/10 07:12:53;;;;;;;0.98;0.10;;;1.70;99.90;;;;;;5120800;27;20042;-86
2023/03/10 07:15:21;;;;;;;0.00;0.00;;;1.70;99.90;;;;;;5138253;27;20043;-85
2023/03/10 07:17:46;;;;;;;0.10;0.10;;;1.70;99.90;;;;;;5120586;27;20133;-85
2023/03/10 07:20:12;;;;;;;0.47;0.38;;;1.70;99.90;;;;;;5120067;27;20150;-86
2023/03/10 07:22:38;;;;;;;0.22;0.13;;;1.70;99.90;;;;;;5120710;27;20042;-86
2023/03/10 07:25:04;;;;;;;0.20;0.20;;;2.20;99.90;;;;;;5120642;27;20041;-86
2023/03/10 07:27:30;;;;;;;0.10;0.10;;;1.70;99.90;;;;;;5108806;27;20367;-84
2023/03/10 07:29:56;;;;;;;0.00;0.00;;;1.70;99.90;;;;;;5082559;27;20050;-85
2023/03/10 07:32:22;;;;;;;0.93;0.15;;;1.70;99.90;;;;;;5127718;27;20042;-85
2023/03/10 07:34:50;;;;;;;0.52;0.30;;;1.80;99.90;;;;;;5134416;27;20042;-89
2023/03/10 07:37:15;;;;;;;0.05;0.05;;;1.80;99.90;;;;;;5100727;27;20051;-86
2023/03/10 07:39:41;;;;;;;0.00;0.00;;;1.90;99.90;;;;;;5117078;27;20509;-87
2023/03/10 07:42:07;;;;;;;0.08;0.08;;;1.90;99.90;;;;;;5098813;27;20043;-88
2023/03/10 07:44:33;;;;;;;0.10;0.10;;;1.90;99.90;;;;;;5112935;27;20050;-86
2023/03/10 07:46:58;;;;;;;0.75;0.47;;;1.90;99.90;;;;;;5116902;27;20185;-82
2023/03/10 07:49:24;;;;;;;0.20;0.20;;;2.30;99.90;;;;;;5109882;27;20042;-86
2023/03/10 07:51:50;;;;;;;0.47;0.10;;;1.90;99.90;;;;;;5085955;27;20065;-87
2023/03/10 07:54:16;;;;;;;0.00;0.00;;;1.90;99.90;;;;;;5100425;27;20486;-89
2023/03/10 07:56:42;;;;;;;0.20;0.20;;;1.90;99.90;;;;;;5101429;28;20083;-88
2023/03/10 07:59:07;;;;;;;1.08;0.85;;;1.90;99.90;;;;;;5082821;27;20057;-85
2023/03/10 08:01:33;;;;;;;3.35;0.85;;;2.00;99.90;;;;;;5136144;27;20164;-84
2023/03/10 08:03:59;;;;;;;0.08;0.08;;;1.90;99.90;;;;;;5098171;28;20062;-84
2023/03/10 08:06:28;;;;;;;2.13;1.52;;;1.90;99.90;;;;;;5102273;27;20057;-85
2023/03/10 08:08:54;;;;;;;1.17;0.75;;;1.90;99.90;;;;;;5153421;27;20035;-85
2023/03/10 08:11:21;;;;;;;0.25;0.25;;;1.90;99.90;;;;;;5136973;27;20047;-84
2023/03/10 08:13:47;;;;;;;0.98;0.65;;;1.90;99.90;;;;;;5136828;27;20134;-84
2023/03/10 08:16:18;;;;;;;0.10;0.08;;;1.90;99.90;;;;;;5120093;27;20363;-85
2023/03/10 08:18:44;;;;;;;0.10;0.10;;;2.00;99.90;;;;;;5120420;27;20050;-85
2023/03/10 08:21:10;;;;;;;2.38;0.30;;;2.10;99.90;;;;;;5136573;27;20047;-85
2023/03/10 08:23:36;;;;;;;0.30;0.10;;;2.30;99.90;;;;;;5137226;27;20390;-85
2023/03/10 08:26:04;;;;;;;0.15;0.05;;;2.00;99.90;;;;;;5120743;27;20043;-86
2023/03/10 08:28:31;;;;;;;0.10;0.10;;;2.00;99.90;;;;;;5136746;27;20047;-85
2023/03/10 08:31:10;;;;;;;1.75;0.30;;;2.10;99.90;;;;;;5119870;27;20114;-86
2023/03/10 08:33:36;;;;;;;0.95;0.77;;;2.10;99.90;;;;;;5137050;27;20042;-84
2023/03/10 08:36:06;;;;;;;0.00;0.00;;;2.10;99.90;;;;;;5103000;27;20057;-89
2023/03/10 08:38:32;;;;;;;0.20;0.10;;;2.00;99.90;;;;;;5119839;27;20396;-88
2023/03/10 08:41:14;;;;;;;3.40;0.70;;;2.10;99.90;;;;;;5103078;27;20042;-84
2023/03/10 08:43:40;;;;;;;3.92;0.75;;;2.00;99.90;;;;;;5137111;27;20046;-84
2023/03/10 08:46:07;;;;;;;0.20;0.20;;;2.10;99.90;;;;;;5119424;27;20054;-83
2023/03/10 08:48:32;;;;;;;0.30;0.30;;;2.10;99.90;;;;;;5120277;27;20474;-84
2023/03/10 08:50:58;;;;;;;0.10;0.10;;;2.10;99.90;;;;;;5136425;27;20043;-84
2023/03/10 08:53:24;;;;;;;0.32;0.32;;;2.10;99.90;;;;;;5119605;27;20093;-84
2023/03/10 08:55:50;;;;;;;0.10;0.10;;;2.20;99.90;;;;;;5136183;27;20071;-84
2023/03/10 08:58:16;;;;;;;0.00;0.00;;;2.20;99.90;;;;;;5085908;27;20043;-83
2023/03/10 09:00:42;;;;;;;0.20;0.20;;;2.20;99.90;;;;;;5119645;27;20050;-84
2023/03/10 09:03:09;;;;;;;1.35;0.60;;;2.50;99.90;;;;;;5119641;27;20394;-84
2023/03/10 09:05:36;;;;;;;0.80;0.30;;;2.30;99.90;;;;;;5102947;27;20471;-84
2023/03/10 09:08:02;;;;;;;0.77;0.77;;;2.30;99.90;;;;;;5137210;27;20039;-83
2023/03/10 09:10:28;;;;;;;0.40;0.40;;;2.30;99.90;;;;;;5138021;27;20053;-84
2023/03/10 09:12:54;;;;;;;0.20;0.20;;;1.80;99.90;;;;;;5123157;27;20042;-84
2023/03/10 09:15:21;;;;;;;0.08;0.00;;;2.50;99.90;;;;;;5140394;27;20103;-84
2023/03/10 09:17:46;;;;;;;0.32;0.17;;;2.30;99.90;;;;;;5140079;27;20059;-84
2023/03/10 09:20:14;;;;;;;0.20;0.20;;;2.30;99.90;;;;;;5122302;27;20061;-84
2023/03/10 09:22:41;;;;;;;0.88;0.82;;;2.30;99.90;;;;;;5122968;27;20042;-84
2023/03/10 09:25:08;;;;;;;0.52;0.52;;;2.30;99.90;;;;;;5140102;27;20054;-84
2023/03/10 09:27:34;;;;;;;0.45;0.45;;;2.30;99.90;;;;;;5140287;27;20057;-84
2023/03/10 09:30:00;;;;;;;0.00;0.00;;;2.30;99.90;;;;;;5123143;27;20129;-84
2023/03/10 09:32:26;;;;;;;0.65;0.65;;;2.40;99.90;;;;;;5122644;27;20054;-84
2023/03/10 09:34:52;;;;;;;0.03;0.00;;;2.60;99.90;;;;;;5122834;27;20076;-83
2023/03/10 09:37:17;;;;;;;0.10;0.10;;;2.30;99.90;;;;;;5122672;27;20043;-84
2023/03/10 09:39:43;;;;;;;0.20;0.20;;;2.30;99.90;;;;;;5122810;27;20478;-83
2023/03/10 09:42:12;;;;;;;0.10;0.00;;;2.30;99.90;;;;;;5139820;27;20050;-85
2023/03/10 09:44:55;;;;;;;1.27;0.82;;;2.30;99.90;;;;;;5122595;27;20043;-85
2023/03/10 09:47:27;;;;;;;0.00;0.00;;;2.30;99.90;;;;;;5111613;27;20047;-83
2023/03/10 09:50:02;;;;;;;0.00;0.00;;;2.30;99.90;;;;;;5130964;27;20043;-85
2023/03/10 09:52:37;;;;;;;0.65;0.65;;;2.30;99.90;;;;;;5139206;27;20050;-84
2023/03/10 09:55:21;;;;;;;1.15;0.10;;;2.30;99.90;;;;;;5121872;27;20082;-85
2023/03/10 09:57:50;;;;;;;0.80;0.52;;;2.30;99.90;;;;;;5133743;27;20484;-85
2023/03/10 10:00:34;;;;;;;0.30;0.30;;;2.30;99.90;;;;;;5122029;27;20654;-85
2023/03/10 10:03:21;;;;;;;0.65;0.20;;;2.30;99.90;;;;;;5157356;27;20043;-86
2023/03/10 10:05:50;;;;;;;0.10;0.10;;;2.30;99.90;;;;;;5139453;27;20092;-83
2023/03/10 10:08:37;;;;;;;0.38;0.38;;;2.30;99.90;;;;;;5121759;27;20371;-83
2023/03/10 10:11:04;;;;;;;0.20;0.20;;;2.30;99.90;;;;;;5121425;27;20046;-83
2023/03/10 10:13:34;;;;;;;0.20;0.20;;;2.40;99.90;;;;;;5122858;27;20550;-83
2023/03/10 10:16:04;;;;;;;1.77;0.45;;;2.40;99.90;;;;;;5127010;27;20045;-83
2023/03/10 10:18:38;;;;;;;0.05;0.05;;;2.20;99.90;;;;;;5140682;27;20053;-83
2023/03/10 10:21:19;;;;;;;0.43;0.43;;;2.30;99.90;;;;;;5120434;27;20478;-83
2023/03/10 10:23:50;;;;;;;2.75;1.15;;;2.20;99.90;;;;;;5138693;27;20091;-82
2023/03/10 10:26:22;;;;;;;0.08;0.08;;;2.20;99.90;;;;;;5121164;27;20561;-82
2023/03/10 10:28:56;;;;;;;0.43;0.43;;;2.20;99.90;;;;;;5138552;27;20038;-82
2023/03/10 10:31:28;;;;;;;2.03;0.75;;;2.20;99.90;;;;;;5138561;27;20069;-83
2023/03/10 10:34:00;;;;;;;0.30;0.30;;;2.20;99.90;;;;;;5121360;27;20402;-82
2023/03/10 10:36:47;;;;;;;1.33;0.68;;;2.20;99.90;;;;;;5139509;27;20189;-82
2023/03/10 10:39:31;;;;;;;0.47;0.47;;;2.20;99.90;;;;;;5156230;27;20039;-83
2023/03/10 10:42:23;;;;;;;0.20;0.20;;;2.10;99.90;;;;;;5104696;27;20394;-87
2023/03/10 10:45:35;;;;;;;0.00;0.00;;;2.20;99.90;;;;;;5133824;27;20050;-89
2023/03/10 10:48:02;;;;;;;0.47;0.47;;;2.10;99.90;;;;;;5129968;27;20051;-91
2023/03/10 10:50:36;;;;;;;0.40;0.25;;;2.10;99.90;;;;;;5086957;27;20715;-87
2023/03/10 10:56:16;;;;;;;1.55;0.65;;;2.10;99.90;;;;;;5090095;28;20048;-88
2023/03/10 10:59:00;;;;;;;0.63;0.63;;;2.10;99.90;;;;;;5097270;28;20103;-87
2023/03/10 11:01:44;;;;;;;0.52;0.52;;;2.10;99.90;;;;;;5114885;28;20411;-85
2023/03/10 11:04:11;;;;;;;0.40;0.10;;;2.10;99.90;;;;;;5098717;28;20047;-89
2023/03/10 11:06:37;;;;;;;0.90;0.55;;;2.10;99.90;;;;;;5097238;28;20051;-85
2023/03/10 11:09:11;;;;;;;2.45;0.55;;;2.30;99.90;;;;;;5113759;28;20050;-88
2023/03/10 11:11:52;;;;;;;0.08;0.08;;;2.20;99.90;;;;;;5097469;28;20069;-86
2023/03/10 11:14:27;;;;;;;1.38;1.17;;;2.20;99.90;;;;;;5097971;28;20126;-85
2023/03/10 11:17:18;;;;;;;1.85;1.10;;;2.30;99.90;;;;;;5113638;28;20506;-83
2023/03/10 11:20:08;;;;;;;2.30;0.10;;;2.20;99.90;;;;;;5097514;28;20039;-93
2023/03/10 11:22:42;;;;;;;0.47;0.32;;;2.20;99.90;;;;;;5117206;28;20138;-92
2023/03/10 11:25:26;;;;;;;0.38;0.38;;;2.20;99.90;;;;;;5117820;28;20044;-95
2023/03/10 11:28:09;;;;;;;2.17;0.35;;;2.10;99.90;;;;;;5114558;28;20044;-91
2023/03/10 11:30:39;;;;;;;0.60;0.60;;;2.20;99.90;;;;;;5113774;28;20055;-89
2023/03/10 11:33:15;;;;;;;4.95;0.45;;;2.10;99.90;;;;;;5114539;28;20425;-95
2023/03/10 11:35:56;;;;;;;0.20;0.20;;;2.20;99.90;;;;;;5098435;28;20039;-94
2023/03/10 11:38:39;;;;;;;0.70;0.47;;;2.20;99.90;;;;;;5108886;28;20417;-84
2023/03/10 11:41:27;;;;;;;0.82;0.75;;;2.30;99.90;;;;;;5112390;28;20372;-87
2023/03/10 11:44:16;;;;;;;1.08;0.95;;;2.20;99.90;;;;;;5112011;28;20398;-91
2023/03/10 11:46:53;;;;;;;0.03;0.03;;;2.30;99.90;;;;;;5095752;28;20055;-88
2023/03/10 11:49:25;;;;;;;7.93;2.05;;;2.30;99.90;;;;;;5096239;28;20619;-95
2023/03/10 11:51:59;;;;;;;0.90;0.55;;;2.40;99.90;;;;;;5081570;28;20032;-91
2023/03/10 11:54:29;;;;;;;;;;;2.40;99.90;;;;;;5098636;28;20096;-84
2023/03/10 11:57:02;;;;;;;0.00;0.00;;;2.40;99.90;;;;;;5133199;27;20299;-83
2023/03/10 11:59:32;;;;;;;1.20;1.10;;;2.40;99.90;;;;;;5134682;27;20440;-84
2023/03/10 12:02:09;;;;;;;0.68;0.47;;;2.40;99.90;;;;;;5117280;27;20042;-85
2023/03/10 12:04:47;;;;;;;0.28;0.03;;;2.40;99.90;;;;;;5120781;28;20050;-86
2023/03/10 12:07:34;;;;;;;0.00;0.00;;;2.30;99.90;;;;;;5117771;28;20505;-84
2023/03/10 12:10:20;;;;;;;1.27;0.52;;;2.40;99.90;;;;;;5135024;28;20043;-83
2023/03/10 12:12:52;;;;;;;0.50;0.50;;;2.50;99.90;;;;;;5115864;28;20054;-83
2023/03/10 12:15:35;;;;;;;0.00;0.00;;;2.40;99.90;;;;;;5136452;28;20440;-84
2023/03/10 12:18:06;;;;;;;0.45;0.45;;;2.50;99.90;;;;;;5134125;28;20043;-83
2023/03/10 12:20:34;;;;;;;0.65;0.35;;;2.80;99.90;;;;;;5134821;28;20045;-83
2023/03/10 12:23:25;;;;;;;0.10;0.10;;;2.40;99.90;;;;;;5119056;28;20051;-84
2023/03/10 12:25:51;;;;;;;0.00;0.00;;;2.40;99.90;;;;;;5104905;28;20503;-85
2023/03/10 12:28:32;;;;;;;3.10;0.75;;;2.40;99.90;;;;;;5117398;28;20044;-84
2023/03/10 12:31:00;;;;;;;2.30;0.38;;;2.40;99.90;;;;;;5118394;28;20047;-84
2023/03/10 12:33:40;;;;;;;0.30;0.30;;;2.40;99.90;;;;;;5118607;28;20054;-84
2023/03/10 12:36:33;;;;;;;0.38;0.38;;;2.30;99.90;;;;;;5118964;28;20055;-84
2023/03/10 12:39:27;;;;;;;0.30;0.10;;;2.40;99.90;;;;;;5135774;28;20047;-84
2023/03/10 12:41:54;;;;;;;0.03;0.00;;;2.30;99.90;;;;;;5118137;28;20475;-84
2023/03/10 12:45:04;;;;;;;1.45;1.23;;;2.40;99.90;;;;;;5118260;27;20051;-83
2023/03/10 12:48:00;;;;;;;0.10;0.10;;;2.30;99.90;;;;;;5120993;27;20100;-84
2023/03/10 12:50:46;;;;;;;;;;;2.20;99.90;;;;;;5137434;27;20047;-84
2023/03/10 12:53:38;;;;;;;0.50;0.50;;;2.20;99.90;;;;;;5139433;27;20009;-82
2023/03/10 12:56:18;;;;;;;0.17;0.17;;;2.20;99.90;;;;;;5119949;27;20086;-84
2023/03/10 12:58:56;;;;;;;0.10;0.10;;;2.10;99.90;;;;;;5138120;27;20047;-84
2023/03/10 13:01:26;;;;;;;0.40;0.40;;;2.70;99.90;;;;;;5137604;27;20067;-84
2023/03/10 13:03:53;;;;;;;0.30;0.20;;;2.10;99.90;;;;;;5137208;27;20074;-83
2023/03/10 13:06:35;;;;;;;0.17;0.10;;;2.00;99.90;;;;;;5119831;27;20043;-82
2023/03/10 13:09:24;;;;;;;0.20;0.20;;;2.00;99.90;;;;;;5118638;27;20047;-82
2023/03/10 13:12:21;;;;;;;0.20;0.20;;;2.00;99.90;;;;;;5118140;27;20491;-83
2023/03/10 13:14:53;;;;;;;0.05;0.05;;;2.00;99.90;;;;;;5119024;27;20058;-84
2023/03/10 13:17:20;;;;;;;0.00;0.00;;;2.00;99.90;;;;;;5119167;27;20058;-86